Time;durP1;ratioP1;P1;durP2;ratioP2;P2;SDS_P1;SDS_P2;PMS_P1;PMS_P2;Temp;Humidity;BMP_temperature;BMP_pressure;BME280_temperature;BME280_humidity;BME280_pressure;Samples;Min_cycle;Max_cycle;Signal;HPM_P1;HPM_P2
2024/04/14 00:00:01;;;;;;;8.20;3.28;;;12.80;87.00;;;;;;6491930;22;20224;-93
2024/04/14 00:02:30;;;;;;;5.50;2.90;;;12.80;86.80;;;;;;6493296;22;20219;-93
2024/04/14 00:05:00;;;;;;;4.47;3.08;;;12.80;86.90;;;;;;6491667;22;20324;-93
2024/04/14 00:07:28;;;;;;;5.78;3.28;;;12.90;87.20;;;;;;6495531;22;20302;-93
2024/04/14 00:09:55;;;;;;;5.75;3.00;;;12.80;87.20;;;;;;6493423;22;20236;-93
2024/04/14 00:12:26;;;;;;;8.60;3.30;;;12.80;87.70;;;;;;6494117;22;20220;-93
2024/04/14 00:14:52;;;;;;;7.97;3.08;;;12.80;87.00;;;;;;6490638;22;20239;-94
2024/04/14 00:17:21;;;;;;;3.95;3.22;;;12.80;87.70;;;;;;6490349;22;20231;-93
2024/04/14 00:19:49;;;;;;;4.68;3.17;;;12.70;88.10;;;;;;6491675;22;20243;-93
2024/04/14 00:22:20;;;;;;;6.28;3.20;;;12.70;88.90;;;;;;6490161;22;20227;-93
2024/04/14 00:24:47;;;;;;;3.97;2.90;;;12.60;89.10;;;;;;6491290;22;20223;-93
2024/04/14 00:27:15;;;;;;;8.75;3.63;;;12.60;89.20;;;;;;6493005;22;20265;-93
2024/04/14 00:29:42;;;;;;;5.28;3.38;;;12.60;89.10;;;;;;6449174;22;20231;-93
2024/04/14 00:32:11;;;;;;;7.05;3.53;;;12.60;89.60;;;;;;6492513;22;20359;-94
2024/04/14 00:34:37;;;;;;;5.22;3.40;;;12.60;89.70;;;;;;6492130;22;20231;-93
2024/04/14 00:37:05;;;;;;;4.07;2.97;;;12.50;90.00;;;;;;6492959;22;20262;-94
2024/04/14 00:39:34;;;;;;;5.75;3.22;;;12.50;89.80;;;;;;6493458;22;20223;-93
2024/04/14 00:42:04;;;;;;;4.75;3.20;;;12.60;89.70;;;;;;6492981;22;20231;-94
2024/04/14 00:44:29;;;;;;;4.97;3.33;;;12.50;89.90;;;;;;6493191;22;20235;-93
2024/04/14 00:46:59;;;;;;;6.00;3.40;;;12.50;90.10;;;;;;6494811;22;20750;-92
2024/04/14 00:49:25;;;;;;;6.63;3.40;;;12.50;90.20;;;;;;6451307;22;20307;-93
2024/04/14 00:51:59;;;;;;;5.43;3.05;;;12.50;90.00;;;;;;6494564;22;20274;-93
2024/04/14 00:54:25;;;;;;;4.30;2.97;;;12.50;90.00;;;;;;6452028;22;20347;-93
2024/04/14 00:56:58;;;;;;;5.40;3.30;;;12.50;90.20;;;;;;6494045;22;20228;-93
2024/04/14 00:59:25;;;;;;;5.57;3.20;;;12.50;89.40;;;;;;6495468;22;20266;-93
2024/04/14 01:01:55;;;;;;;4.82;2.83;;;12.50;89.50;;;;;;6495890;22;20263;-94
2024/04/14 01:04:22;;;;;;;4.68;2.85;;;12.50;90.10;;;;;;6453671;22;20235;-93
2024/04/14 01:06:51;;;;;;;7.40;3.00;;;12.40;90.10;;;;;;6496908;22;20259;-93
2024/04/14 01:09:18;;;;;;;6.03;3.15;;;12.30;90.30;;;;;;6497291;22;20621;-93
2024/04/14 01:11:47;;;;;;;4.93;3.30;;;12.30;90.40;;;;;;6500154;22;20211;-92
2024/04/14 01:14:31;;;;;;;4.55;3.28;;;12.30;90.60;;;;;;6497274;22;20231;-93
2024/04/14 01:17:00;;;;;;;5.90;3.00;;;12.20;90.80;;;;;;6495305;22;20548;-94
2024/04/14 01:19:27;;;;;;;3.53;3.20;;;12.20;90.60;;;;;;6495950;22;20248;-93
2024/04/14 01:21:56;;;;;;;6.13;3.30;;;12.10;90.80;;;;;;6497709;22;20295;-93
2024/04/14 01:24:23;;;;;;;4.53;3.33;;;12.10;90.80;;;;;;6496411;22;20267;-93
2024/04/14 01:26:55;;;;;;;5.03;3.10;;;12.00;90.70;;;;;;6495794;22;20263;-94
2024/04/14 01:29:21;;;;;;;5.13;3.10;;;12.00;90.70;;;;;;6496026;22;20299;-93
2024/04/14 01:31:51;;;;;;;5.45;3.28;;;12.00;90.70;;;;;;6495251;22;20235;-94
2024/04/14 01:34:21;;;;;;;3.67;2.92;;;11.90;90.70;;;;;;6497929;22;20239;-93
2024/04/14 01:36:54;;;;;;;3.95;2.80;;;11.90;90.70;;;;;;6500997;22;20224;-94
2024/04/14 01:39:21;;;;;;;5.40;3.38;;;11.90;91.00;;;;;;6498140;22;20325;-94
2024/04/14 01:41:50;;;;;;;5.53;3.10;;;11.90;90.70;;;;;;6497235;22;20233;-94
2024/04/14 01:44:23;;;;;;;5.63;3.25;;;11.90;90.70;;;;;;6496505;22;20306;-94
2024/04/14 01:46:59;;;;;;;5.97;3.17;;;11.90;91.00;;;;;;6495904;22;20270;-94
2024/04/14 01:49:34;;;;;;;4.38;2.85;;;11.90;91.20;;;;;;6495902;22;20282;-94
2024/04/14 01:52:03;;;;;;;5.07;3.10;;;11.90;91.30;;;;;;6496123;22;20291;-94
2024/04/14 01:57:59;;;;;;;4.55;3.50;;;11.90;91.10;;;;;;6493052;22;20298;-93
2024/04/14 02:00:46;;;;;;;6.68;3.30;;;11.90;90.90;;;;;;6496702;22;20274;-94
2024/04/14 02:03:23;;;;;;;5.57;3.03;;;11.90;90.70;;;;;;6490503;22;20223;-94
2024/04/14 02:05:56;;;;;;;6.53;2.95;;;11.90;90.70;;;;;;6464937;22;20223;-94
2024/04/14 02:08:28;;;;;;;5.15;2.78;;;11.90;90.70;;;;;;6455085;22;20265;-93
2024/04/14 02:10:56;;;;;;;3.70;3.03;;;11.90;90.70;;;;;;6497165;22;20231;-94
2024/04/14 02:13:39;;;;;;;4.60;3.20;;;11.90;90.70;;;;;;6456554;22;20227;-93
2024/04/14 02:16:18;;;;;;;4.07;2.95;;;11.90;90.70;;;;;;6456100;22;20267;-94
2024/04/14 02:18:48;;;;;;;9.30;3.22;;;12.00;90.70;;;;;;6499887;22;20269;-94
2024/04/14 02:21:25;;;;;;;3.88;2.90;;;12.00;90.70;;;;;;6500405;22;20227;-93
2024/04/14 02:23:56;;;;;;;4.18;2.90;;;12.00;90.90;;;;;;6500990;22;20223;-93
2024/04/14 02:26:22;;;;;;;4.35;2.78;;;12.00;90.30;;;;;;6458695;22;20231;-95
2024/04/14 02:34:29;;;;;;;4.68;2.75;;;12.00;90.00;;;;;;6485356;22;20282;-93
2024/04/14 02:36:56;;;;;;;3.60;2.83;;;12.00;88.90;;;;;;6457974;22;20223;-94
2024/04/14 02:39:26;;;;;;;4.72;2.67;;;12.00;89.30;;;;;;6457513;22;20216;-93
2024/04/14 02:41:54;;;;;;;4.47;3.03;;;12.00;87.90;;;;;;6457034;22;20224;-94
2024/04/14 02:44:26;;;;;;;4.57;2.70;;;12.10;88.10;;;;;;6500328;22;20235;-93
2024/04/14 02:46:54;;;;;;;3.67;2.90;;;12.10;88.20;;;;;;6500768;22;20219;-94
2024/04/14 02:52:21;;;;;;;6.00;3.05;;;12.00;87.80;;;;;;6478419;22;20282;-94
2024/04/14 02:54:59;;;;;;;7.22;3.40;;;12.00;87.90;;;;;;6498006;22;20219;-93
2024/04/14 03:00:16;;;;;;;4.18;2.60;;;11.90;88.50;;;;;;6491466;22;20255;-94
2024/04/14 03:02:44;;;;;;;4.00;2.85;;;11.80;88.40;;;;;;6456641;22;20263;-94
2024/04/14 03:08:10;;;;;;;6.50;2.97;;;11.80;88.60;;;;;;6500232;22;20266;-94
2024/04/14 03:10:39;;;;;;;5.60;3.20;;;11.70;88.50;;;;;;6457992;22;20307;-94
2024/04/14 03:13:09;;;;;;;5.00;3.00;;;11.70;88.70;;;;;;6500063;22;20267;-94
2024/04/14 03:15:38;;;;;;;4.95;3.00;;;11.70;88.80;;;;;;6501634;22;20219;-94
2024/04/14 03:18:16;;;;;;;3.55;3.03;;;11.70;89.10;;;;;;6501729;22;20227;-94
2024/04/14 03:20:54;;;;;;;5.82;2.75;;;11.70;88.50;;;;;;6456072;22;20215;-94
2024/04/14 03:23:28;;;;;;;3.78;3.00;;;11.60;89.00;;;;;;6500558;22;20295;-93
2024/04/14 03:25:56;;;;;;;5.72;3.40;;;11.60;89.40;;;;;;6470211;22;20328;-93
2024/04/14 03:28:26;;;;;;;3.92;3.05;;;11.60;89.50;;;;;;6482868;22;20311;-94
2024/04/14 03:33:57;;;;;;;3.10;2.80;;;11.60;88.80;;;;;;6501746;22;20271;-93
2024/04/14 03:36:23;;;;;;;4.35;2.65;;;11.60;87.80;;;;;;6464790;22;20334;-92
2024/04/14 03:39:10;;;;;;;6.45;2.60;;;11.60;88.30;;;;;;6417632;22;20256;-95
2024/04/14 03:44:26;;;;;;;3.75;2.53;;;11.70;87.90;;;;;;6450409;22;20244;-94
2024/04/14 03:47:03;;;;;;;3.22;2.67;;;11.70;86.50;;;;;;6448965;22;20305;-94
2024/04/14 03:52:28;;;;;;;2.72;2.40;;;11.70;85.70;;;;;;6450530;22;20259;-94
2024/04/14 03:55:13;;;;;;;3.92;2.50;;;11.70;84.30;;;;;;6450374;22;20236;-94
2024/04/14 03:57:40;;;;;;;4.53;2.42;;;11.70;84.50;;;;;;6450089;22;20264;-94
2024/04/14 04:00:34;;;;;;;4.60;2.60;;;11.80;84.50;;;;;;6448957;22;20236;-94
2024/04/14 04:03:00;;;;;;;4.18;2.60;;;11.70;84.70;;;;;;6451149;22;20229;-94
2024/04/14 04:05:30;;;;;;;2.63;2.42;;;11.70;83.60;;;;;;6452415;22;20266;-94
2024/04/14 04:08:00;;;;;;;4.00;2.42;;;11.70;84.20;;;;;;6452483;22;20228;-94
2024/04/14 04:10:42;;;;;;;3.42;2.40;;;11.70;83.70;;;;;;6452172;22;20216;-94
2024/04/14 04:13:19;;;;;;;2.83;2.25;;;11.70;84.10;;;;;;6452167;22;20308;-94
2024/04/14 04:16:01;;;;;;;4.10;2.38;;;11.60;84.00;;;;;;6453763;22;20279;-93
2024/04/14 04:26:20;;;;;;;2.97;2.22;;;11.60;83.20;;;;;;6486443;22;20317;-94
2024/04/14 04:28:57;;;;;;;4.28;2.30;;;11.60;83.40;;;;;;6501896;22;20228;-94
2024/04/14 04:31:27;;;;;;;4.30;2.38;;;11.50;83.40;;;;;;6500565;22;20302;-94
2024/04/14 04:33:55;;;;;;;3.38;2.10;;;11.40;83.40;;;;;;6503649;22;20235;-94
2024/04/14 04:36:24;;;;;;;3.67;2.40;;;11.40;83.20;;;;;;6503069;22;20262;-95
2024/04/14 04:38:53;;;;;;;3.08;2.42;;;11.40;82.90;;;;;;6460628;22;20216;-94
2024/04/14 04:41:25;;;;;;;3.65;2.30;;;11.30;83.20;;;;;;6503022;22;20298;-94
2024/04/14 04:46:32;;;;;;;3.50;2.25;;;11.30;83.50;;;;;;6452444;22;20279;-94
2024/04/14 04:48:59;;;;;;;3.65;2.33;;;11.30;83.30;;;;;;6410167;22;20232;-94
2024/04/14 04:51:28;;;;;;;3.25;2.80;;;11.30;83.30;;;;;;6455166;22;20330;-94
2024/04/14 04:53:55;;;;;;;4.97;2.42;;;11.30;83.80;;;;;;6502419;22;20278;-94
2024/04/14 04:56:27;;;;;;;2.65;2.22;;;11.30;84.70;;;;;;6417589;22;20223;-95
2024/04/14 04:58:53;;;;;;;2.80;2.35;;;11.20;84.50;;;;;;6458403;22;20303;-95
2024/04/14 05:01:24;;;;;;;2.97;2.10;;;11.30;84.30;;;;;;6502310;22;20220;-95
2024/04/14 05:03:50;;;;;;;4.53;1.95;;;11.30;84.70;;;;;;6500768;22;20294;-94
2024/04/14 05:06:21;;;;;;;2.78;2.28;;;11.30;84.50;;;;;;6502346;22;20235;-95
2024/04/14 05:08:47;;;;;;;3.75;2.40;;;11.30;84.30;;;;;;6435020;22;20255;-94
2024/04/14 05:11:18;;;;;;;2.78;2.17;;;11.40;84.50;;;;;;6461199;22;20211;-95
2024/04/14 05:30:20;;;;;;;3.22;2.50;;;11.60;83.60;;;;;;6401937;22;20464;-93
2024/04/14 05:35:24;;;;;;;6.38;2.90;;;11.80;83.30;;;;;;6402162;22;20217;-93
2024/04/14 05:38:01;;;;;;;4.85;2.95;;;11.90;82.70;;;;;;6384172;22;20349;-93
2024/04/14 05:40:31;;;;;;;4.10;2.60;;;12.10;82.00;;;;;;6452729;22;20213;-95
2024/04/14 07:35:32;;;;;;;3.30;2.28;;;19.80;22.50;;;;;;6329625;22;21150;-92
2024/04/14 07:40:38;;;;;;;3.13;1.95;;;20.10;19.90;;;;;;6368230;22;20275;-89
2024/04/14 08:08:34;;;;;;;2.33;1.52;;;21.50;13.10;;;;;;6417995;22;20251;-94
2024/04/14 08:13:38;;;;;;;2.63;1.63;;;21.50;13.30;;;;;;6460286;22;20283;-90
2024/04/14 08:16:05;;;;;;;3.53;1.85;;;21.60;12.00;;;;;;6481122;22;20258;-90
2024/04/14 08:18:33;;;;;;;2.97;1.98;;;21.60;12.00;;;;;;6473779;22;20290;-89
2024/04/14 08:21:00;;;;;;;3.50;2.10;;;21.70;12.10;;;;;;6479708;22;20341;-93
2024/04/14 08:23:30;;;;;;;6.53;2.00;;;21.70;12.10;;;;;;6486418;22;20262;-92
2024/04/14 08:26:00;;;;;;;2.95;2.10;;;21.70;12.10;;;;;;6484039;22;20295;-92
2024/04/14 08:28:29;;;;;;;2.28;1.90;;;21.80;12.20;;;;;;6482194;22;20223;-92
2024/04/14 08:30:54;;;;;;;2.17;1.90;;;21.90;12.20;;;;;;6374305;22;20381;-90
2024/04/14 08:33:24;;;;;;;3.85;1.80;;;22.00;12.20;;;;;;6486703;22;20714;-91
2024/04/14 08:35:50;;;;;;;3.78;2.03;;;22.10;12.30;;;;;;6470615;22;20267;-91
2024/04/14 08:38:19;;;;;;;2.58;1.80;;;22.10;12.30;;;;;;6424444;22;20255;-89
2024/04/14 08:40:51;;;;;;;2.08;1.88;;;22.10;12.30;;;;;;6469492;22;20646;-91
2024/04/14 08:43:23;;;;;;;2.20;2.00;;;22.10;12.30;;;;;;6467653;22;20216;-91
2024/04/14 08:51:05;;;;;;;2.83;2.28;;;22.50;12.60;;;;;;6445480;22;20314;-93
2024/04/14 08:53:32;;;;;;;4.82;2.08;;;22.80;12.80;;;;;;6445872;22;20352;-91
2024/04/14 08:56:01;;;;;;;2.92;2.33;;;22.90;11.60;;;;;;6445493;22;20274;-92
2024/04/14 09:03:43;;;;;;;2.58;2.17;;;23.50;12.00;;;;;;6390092;22;20263;-91
2024/04/14 09:06:11;;;;;;;6.03;2.42;;;23.80;11.10;;;;;;6462512;22;20315;-92
2024/04/14 09:08:40;;;;;;;6.00;4.47;;;24.00;11.90;;;;;;6490802;22;20261;-91
2024/04/14 09:11:07;;;;;;;2.25;1.70;;;24.10;9.60;;;;;;6479695;22;20337;-88
2024/04/14 09:13:36;;;;;;;2.22;1.60;;;24.80;9.90;;;;;;6476262;22;20299;-89
2024/04/14 09:16:02;;;;;;;3.95;2.00;;;25.40;8.40;;;;;;6478076;22;20247;-90
2024/04/14 09:18:31;;;;;;;4.18;2.10;;;26.30;7.80;;;;;;6433608;22;20219;-90
2024/04/14 09:21:01;;;;;;;2.97;2.10;;;27.20;5.90;;;;;;6479190;22;20274;-90
2024/04/14 09:23:30;;;;;;;2.33;2.08;;;27.90;5.70;;;;;;6479986;22;20223;-91
2024/04/14 09:25:56;;;;;;;5.00;4.32;;;28.60;4.30;;;;;;6479490;22;20275;-91
2024/04/14 09:28:25;;;;;;;5.55;4.70;;;28.80;3.40;;;;;;6480679;22;20321;-92
2024/04/14 09:30:51;;;;;;;11.18;10.18;;;28.90;3.20;;;;;;6486052;22;20250;-92
2024/04/14 09:33:20;;;;;;;2.78;2.35;;;28.80;3.50;;;;;;6484922;22;20239;-93
2024/04/14 09:35:48;;;;;;;2.72;2.20;;;29.40;2.90;;;;;;6482298;22;20278;-92
2024/04/14 09:38:20;;;;;;;2.55;2.25;;;29.70;2.40;;;;;;6480725;22;20227;-91
2024/04/14 09:40:46;;;;;;;4.55;2.30;;;29.80;1.80;;;;;;6482074;22;20223;-92
2024/04/14 09:43:16;;;;;;;3.50;2.10;;;29.80;2.10;;;;;;6483447;22;20227;-93
2024/04/14 09:56:24;;;;;;;35.25;31.55;;;29.10;3.80;;;;;;6460582;22;20315;-90
2024/04/14 09:58:50;;;;;;;5.35;3.85;;;29.00;3.90;;;;;;6481341;22;20289;-92
2024/04/14 10:01:23;;;;;;;13.20;11.95;;;28.60;3.50;;;;;;6480457;22;20230;-91
2024/04/14 10:03:54;;;;;;;4.00;3.15;;;28.30;3.40;;;;;;6438262;22;20227;-91
2024/04/14 10:09:48;;;;;;;5.22;2.58;;;29.10;4.40;;;;;;6487663;22;20265;-91
2024/04/14 10:12:47;;;;;;;4.05;3.38;;;29.70;2.50;;;;;;6488766;22;20653;-90
2024/04/14 10:15:19;;;;;;;4.72;3.50;;;30.00;4.80;;;;;;6449239;22;20226;-93
2024/04/14 10:22:11;;;;;;;8.80;8.07;;;30.00;2.10;;;;;;6506382;22;20164;-94
2024/04/14 10:24:49;;;;;;;4.18;3.88;;;30.30;2.20;;;;;;6451071;22;20946;-92
2024/04/14 10:34:45;;;;;;;2.85;2.35;;;30.60;1.40;;;;;;6489124;22;20278;-92
2024/04/14 10:37:21;;;;;;;4.60;2.40;;;30.30;1.30;;;;;;6490400;22;20222;-92
2024/04/14 10:39:53;;;;;;;3.10;2.40;;;29.50;1.10;;;;;;6479720;22;20253;-92
2024/04/14 10:42:21;;;;;;;2.42;2.22;;;29.00;3.40;;;;;;6415215;22;20258;-88
2024/04/14 10:44:55;;;;;;;3.00;2.70;;;28.50;4.30;;;;;;6475892;22;20240;-90
2024/04/14 10:55:20;;;;;;;3.67;2.30;;;27.70;5.40;;;;;;6476950;22;20293;-93
2024/04/14 10:58:13;;;;;;;3.70;2.08;;;28.00;4.10;;;;;;6476563;22;20226;-89
2024/04/14 11:01:30;;;;;;;2.60;2.13;;;28.40;4.90;;;;;;6480543;22;20266;-89
2024/04/14 11:04:00;;;;;;;3.20;2.17;;;28.20;6.10;;;;;;6467511;22;20222;-90
2024/04/14 11:06:26;;;;;;;2.30;2.10;;;27.90;2.90;;;;;;6476031;22;20256;-88
2024/04/14 11:08:54;;;;;;;3.60;2.20;;;27.70;4.60;;;;;;6474399;22;20227;-90
2024/04/14 11:11:23;;;;;;;3.50;2.30;;;27.70;4.60;;;;;;6471813;22;20383;-89
2024/04/14 11:13:52;;;;;;;4.00;1.98;;;27.40;3.90;;;;;;6478815;22;20969;-91
2024/04/14 11:16:18;;;;;;;1.83;1.73;;;26.90;4.60;;;;;;6438164;22;20226;-90
2024/04/14 11:18:49;;;;;;;4.30;1.98;;;26.80;4.90;;;;;;6471279;22;20783;-90
2024/04/14 11:21:24;;;;;;;6.82;2.22;;;26.90;4.20;;;;;;6487687;22;20254;-90
2024/04/14 11:24:13;;;;;;;3.67;2.25;;;27.10;4.30;;;;;;6497230;22;20235;-91
2024/04/14 11:26:43;;;;;;;5.90;2.03;;;27.20;4.40;;;;;;6498267;22;20282;-88
2024/04/14 11:31:47;;;;;;;2.90;2.00;;;27.10;3.20;;;;;;6371799;22;20236;-90
2024/04/14 11:34:13;;;;;;;5.15;2.25;;;27.10;4.30;;;;;;6374422;22;20245;-89
2024/04/14 11:43:33;;;;;;;2.25;2.00;;;26.90;4.20;;;;;;6391521;22;20253;-88
2024/04/14 11:45:58;;;;;;;3.35;1.85;;;27.10;4.00;;;;;;6376408;22;20311;-87
2024/04/14 11:48:28;;;;;;;4.70;2.33;;;27.10;3.40;;;;;;6372803;22;20240;-87
2024/04/14 11:50:54;;;;;;;2.90;2.22;;;26.90;4.00;;;;;;6367884;22;20524;-87
2024/04/14 11:53:23;;;;;;;3.25;2.00;;;26.70;3.50;;;;;;6381344;22;20213;-89
2024/04/14 11:55:49;;;;;;;1.92;1.73;;;26.50;2.90;;;;;;6381987;22;20301;-90
2024/04/14 11:58:22;;;;;;;2.88;1.83;;;26.40;3.30;;;;;;6381234;22;20332;-89
2024/04/14 12:00:50;;;;;;;7.13;2.30;;;26.40;2.90;;;;;;6376910;22;20393;-89
2024/04/14 12:03:19;;;;;;;12.00;8.57;;;26.30;2.90;;;;;;6375360;22;20260;-88
2024/04/14 12:05:45;;;;;;;6.97;6.28;;;26.30;3.80;;;;;;6375129;22;20331;-92
2024/04/14 12:08:14;;;;;;;4.13;3.05;;;26.40;5.20;;;;;;6371504;22;20688;-89
2024/04/14 12:10:40;;;;;;;2.40;2.20;;;26.50;4.90;;;;;;6369448;22;20660;-88
2024/04/14 12:13:09;;;;;;;3.55;2.10;;;26.70;3.60;;;;;;6367790;22;20225;-85
2024/04/14 12:15:35;;;;;;;3.33;1.98;;;26.80;3.50;;;;;;6370604;22;20265;-87
2024/04/14 12:18:07;;;;;;;5.90;2.30;;;26.50;2.30;;;;;;6371428;22;20225;-88
2024/04/14 12:20:33;;;;;;;4.03;2.10;;;26.40;3.40;;;;;;6373266;22;20241;-89
2024/04/14 12:23:01;;;;;;;5.93;2.40;;;26.20;2.50;;;;;;6371345;22;20335;-89
2024/04/14 12:25:27;;;;;;;4.43;2.33;;;26.10;2.40;;;;;;6374321;22;20232;-89
2024/04/14 12:27:56;;;;;;;4.93;2.50;;;26.10;2.50;;;;;;6373681;22;20751;-91
2024/04/14 12:30:22;;;;;;;4.00;2.10;;;26.10;3.50;;;;;;6374783;22;20229;-92
2024/04/14 12:32:50;;;;;;;4.65;2.00;;;26.10;3.80;;;;;;6373575;22;20333;-91
2024/04/14 12:35:19;;;;;;;2.85;1.90;;;26.00;4.10;;;;;;6400908;22;20560;-91
2024/04/14 12:37:48;;;;;;;2.25;1.92;;;26.00;4.50;;;;;;6382104;22;20361;-89
2024/04/14 12:40:14;;;;;;;4.70;2.15;;;26.20;3.20;;;;;;6425569;22;20330;-91
2024/04/14 12:42:43;;;;;;;4.47;2.10;;;26.10;2.90;;;;;;6427459;22;21040;-89
2024/04/14 12:45:09;;;;;;;4.63;2.10;;;26.10;2.80;;;;;;6426753;22;20271;-88
2024/04/14 12:47:37;;;;;;;3.72;2.28;;;26.00;1.80;;;;;;6428061;22;20232;-90
2024/04/14 12:50:03;;;;;;;4.15;2.10;;;25.90;4.10;;;;;;6426013;22;20311;-90
2024/04/14 12:52:35;;;;;;;4.07;2.22;;;26.20;3.20;;;;;;6381871;22;20225;-90
2024/04/14 12:55:01;;;;;;;4.47;2.13;;;26.30;4.10;;;;;;6432229;22;20242;-90
2024/04/14 12:57:29;;;;;;;3.00;1.80;;;26.30;4.20;;;;;;6426982;22;20224;-90
2024/04/14 12:59:55;;;;;;;4.75;2.13;;;26.10;6.10;;;;;;6426042;22;20337;-89
2024/04/14 13:02:24;;;;;;;6.07;2.22;;;26.10;5.10;;;;;;6425837;22;20236;-91
2024/04/14 13:04:50;;;;;;;4.60;1.80;;;26.10;5.10;;;;;;6426167;22;20228;-89
2024/04/14 13:07:21;;;;;;;5.82;2.30;;;26.10;5.10;;;;;;6424770;22;20272;-89
2024/04/14 13:09:52;;;;;;;4.97;1.80;;;26.20;4.10;;;;;;6386245;22;20689;-87
2024/04/14 13:12:23;;;;;;;3.72;1.92;;;26.00;5.00;;;;;;6425381;22;20668;-91
2024/04/14 13:14:49;;;;;;;2.03;1.83;;;26.00;5.40;;;;;;6427495;22;20271;-89
2024/04/14 13:17:17;;;;;;;2.30;2.10;;;26.00;4.20;;;;;;6382556;22;20667;-89
2024/04/14 13:19:44;;;;;;;3.35;1.90;;;26.00;4.60;;;;;;6425360;22;20232;-89
2024/04/14 13:22:13;;;;;;;3.40;1.90;;;26.00;4.40;;;;;;6423777;22;20259;-89
2024/04/14 13:24:39;;;;;;;3.55;2.08;;;25.90;3.90;;;;;;6425975;22;20327;-89
2024/04/14 13:27:10;;;;;;;4.05;2.03;;;25.90;3.80;;;;;;6426386;22;20256;-91
2024/04/14 13:29:36;;;;;;;4.30;2.00;;;25.90;3.70;;;;;;6426247;22;20585;-89
2024/04/14 13:32:05;;;;;;;9.15;2.30;;;25.90;4.30;;;;;;6424964;22;20304;-90
2024/04/14 13:34:31;;;;;;;3.67;1.90;;;26.00;4.90;;;;;;6425514;22;20372;-90
2024/04/14 13:37:04;;;;;;;3.25;2.13;;;26.00;3.60;;;;;;6382606;22;20270;-89
2024/04/14 13:39:30;;;;;;;7.30;2.17;;;26.00;4.50;;;;;;6422638;22;20570;-88
2024/04/14 13:41:59;;;;;;;2.90;2.47;;;25.90;4.00;;;;;;6377784;22;20263;-87
2024/04/14 13:44:27;;;;;;;3.03;2.00;;;25.80;4.00;;;;;;6375526;22;20228;-87
2024/04/14 13:46:56;;;;;;;2.67;2.05;;;25.80;4.30;;;;;;6416818;22;20674;-88
2024/04/14 13:49:22;;;;;;;3.00;2.30;;;25.80;4.70;;;;;;6375413;22;20228;-88
2024/04/14 13:51:50;;;;;;;2.63;1.88;;;25.80;5.90;;;;;;6422609;22;20912;-87
2024/04/14 13:54:16;;;;;;;8.27;2.80;;;25.70;6.60;;;;;;6422646;22;20276;-86
2024/04/14 13:56:45;;;;;;;13.18;5.78;;;25.70;6.40;;;;;;6423395;22;20702;-86
2024/04/14 13:59:12;;;;;;;3.90;2.05;;;25.70;6.10;;;;;;6424327;22;20232;-89
2024/04/14 14:01:43;;;;;;;2.17;1.95;;;25.80;6.00;;;;;;6422435;22;20264;-87
2024/04/14 14:04:09;;;;;;;3.45;2.47;;;25.70;4.60;;;;;;6418830;22;20236;-87
2024/04/14 14:06:40;;;;;;;5.65;2.30;;;25.60;4.80;;;;;;6411721;22;20342;-88
2024/04/14 14:09:09;;;;;;;4.95;2.53;;;25.50;4.80;;;;;;6370761;22;20228;-87
2024/04/14 14:11:38;;;;;;;2.75;2.30;;;25.50;4.80;;;;;;6415335;22;20292;-88
2024/04/14 14:14:04;;;;;;;2.83;2.15;;;25.50;4.80;;;;;;6415544;22;20267;-86
2024/04/14 14:16:33;;;;;;;2.40;2.20;;;25.60;4.80;;;;;;6418261;22;20683;-90
2024/04/14 14:19:02;;;;;;;2.63;2.30;;;25.60;5.20;;;;;;6415923;22;20352;-87
2024/04/14 14:21:31;;;;;;;4.03;2.08;;;25.60;5.40;;;;;;6417146;22;20272;-87
2024/04/14 14:23:57;;;;;;;3.80;2.17;;;25.60;4.00;;;;;;6416609;22;20217;-88
2024/04/14 14:26:26;;;;;;;3.63;1.88;;;25.70;4.60;;;;;;6422546;22;20275;-88
2024/04/14 14:28:51;;;;;;;2.72;2.40;;;25.70;3.90;;;;;;6417093;22;20229;-89
2024/04/14 14:31:20;;;;;;;4.60;2.58;;;25.60;4.50;;;;;;6419037;22;20339;-89
2024/04/14 14:36:38;;;;;;;4.03;2.50;;;25.70;5.30;;;;;;6423464;22;20262;-91
2024/04/14 14:39:07;;;;;;;4.68;2.42;;;25.60;4.80;;;;;;6414117;22;20220;-92
2024/04/14 14:41:36;;;;;;;4.88;2.55;;;25.60;5.10;;;;;;6416016;22;20225;-89
2024/04/14 14:44:06;;;;;;;2.78;2.45;;;25.50;4.80;;;;;;6413209;22;20220;-88
2024/04/14 14:46:35;;;;;;;2.72;2.00;;;25.40;5.30;;;;;;6415536;22;20255;-92
2024/04/14 14:49:02;;;;;;;3.45;2.30;;;25.30;5.20;;;;;;6373666;22;20263;-89
2024/04/14 14:51:31;;;;;;;3.13;2.20;;;25.20;4.90;;;;;;6372072;22;20228;-89
2024/04/14 14:54:00;;;;;;;5.20;2.30;;;25.20;5.70;;;;;;6417439;22;20292;-88
2024/04/14 14:56:29;;;;;;;3.20;2.10;;;25.20;5.40;;;;;;6422030;22;20224;-88
2024/04/14 14:58:55;;;;;;;4.95;2.40;;;25.30;5.80;;;;;;6381456;22;20360;-88
2024/04/14 15:01:24;;;;;;;6.07;2.10;;;25.40;5.20;;;;;;6423853;22;20236;-88
2024/04/14 15:03:51;;;;;;;3.75;2.17;;;25.50;4.80;;;;;;6427374;22;20395;-85
2024/04/14 15:06:20;;;;;;;5.97;2.20;;;25.30;4.80;;;;;;6424276;22;20293;-90
2024/04/14 15:08:46;;;;;;;3.10;2.17;;;25.20;5.40;;;;;;6423885;22;20272;-89
2024/04/14 15:11:23;;;;;;;3.95;2.00;;;25.10;5.90;;;;;;6421650;22;20327;-89
2024/04/14 15:13:51;;;;;;;3.55;2.00;;;25.00;5.90;;;;;;6422003;22;20255;-90
2024/04/14 15:16:20;;;;;;;4.15;1.95;;;25.00;5.60;;;;;;6429862;22;20236;-88
2024/04/14 15:18:47;;;;;;;2.60;1.95;;;24.90;6.90;;;;;;6425854;22;20306;-88
2024/04/14 15:21:15;;;;;;;3.38;2.00;;;25.00;6.30;;;;;;6424519;22;20282;-91
2024/04/14 15:23:41;;;;;;;2.10;1.90;;;25.00;5.70;;;;;;6344563;22;20239;-87
2024/04/14 15:26:10;;;;;;;5.93;2.30;;;25.00;6.10;;;;;;6428739;22;20316;-89
2024/04/14 15:28:39;;;;;;;3.80;2.28;;;24.90;6.40;;;;;;6454633;22;20258;-90
2024/04/14 15:31:08;;;;;;;2.88;2.10;;;24.90;6.30;;;;;;6440464;22;20548;-84
2024/04/14 15:33:38;;;;;;;2.92;2.03;;;25.00;6.40;;;;;;6476163;22;20337;-88
2024/04/14 15:36:05;;;;;;;2.58;2.15;;;25.00;6.10;;;;;;6433461;22;20270;-89
2024/04/14 15:38:34;;;;;;;4.95;2.25;;;25.00;6.60;;;;;;6475166;22;20223;-88
2024/04/14 15:41:00;;;;;;;2.42;2.22;;;24.90;5.50;;;;;;6475691;22;20721;-86
2024/04/14 15:43:28;;;;;;;2.55;2.10;;;24.90;5.70;;;;;;6476060;22;20330;-85
2024/04/14 15:45:57;;;;;;;3.97;2.35;;;24.90;6.20;;;;;;6432157;22;20223;-88
2024/04/14 15:48:26;;;;;;;2.20;2.00;;;24.80;6.10;;;;;;6478572;22;20223;-90
2024/04/14 15:51:00;;;;;;;2.85;2.15;;;24.80;6.30;;;;;;6477042;22;20284;-91
2024/04/14 15:53:29;;;;;;;3.40;2.20;;;24.80;6.40;;;;;;6425345;22;20264;-90
2024/04/14 15:55:55;;;;;;;3.28;2.67;;;24.70;6.70;;;;;;6469145;22;20678;-86
2024/04/14 15:58:23;;;;;;;2.33;2.13;;;24.50;7.10;;;;;;6471458;22;20235;-88
2024/04/14 16:01:00;;;;;;;3.58;2.60;;;24.30;7.50;;;;;;6470383;22;20832;-88
2024/04/14 16:03:28;;;;;;;2.17;2.03;;;24.10;7.60;;;;;;6472114;22;20226;-89
2024/04/14 16:05:55;;;;;;;2.85;2.20;;;23.90;8.40;;;;;;6474211;22;20341;-88
2024/04/14 16:08:23;;;;;;;3.15;2.70;;;23.90;8.30;;;;;;6472964;22;20315;-88
2024/04/14 16:10:59;;;;;;;2.50;2.30;;;23.90;8.50;;;;;;6472955;22;20283;-86
2024/04/14 16:13:28;;;;;;;5.18;2.30;;;23.90;8.30;;;;;;6478530;22;20243;-88
2024/04/14 16:16:07;;;;;;;3.17;2.25;;;24.00;8.40;;;;;;6473519;22;20358;-88
2024/04/14 16:18:36;;;;;;;4.35;2.42;;;24.00;8.30;;;;;;6469023;22;20227;-90
2024/04/14 16:21:03;;;;;;;2.60;2.38;;;24.00;8.60;;;;;;6427043;22;20228;-87
2024/04/14 16:23:33;;;;;;;3.50;2.15;;;23.90;9.10;;;;;;6476702;22;20262;-87
2024/04/14 16:25:59;;;;;;;2.72;2.45;;;23.80;9.20;;;;;;6471878;22;20325;-89
2024/04/14 16:28:33;;;;;;;3.17;2.65;;;23.70;9.40;;;;;;6426472;22;20227;-86
2024/04/14 16:30:59;;;;;;;3.42;2.30;;;23.60;9.80;;;;;;6466488;22;20235;-88
2024/04/14 16:33:30;;;;;;;2.55;2.35;;;23.70;9.70;;;;;;6471796;22;20219;-86
2024/04/14 16:35:56;;;;;;;4.63;2.50;;;23.60;10.10;;;;;;6472604;22;20276;-89
2024/04/14 16:38:25;;;;;;;5.40;2.35;;;23.50;9.80;;;;;;6471778;22;20611;-87
2024/04/14 16:40:51;;;;;;;5.57;2.88;;;23.40;10.20;;;;;;6468768;22;20282;-88
2024/04/14 16:43:19;;;;;;;3.75;2.30;;;23.30;9.40;;;;;;6471485;22;20341;-88
2024/04/14 16:45:45;;;;;;;3.22;2.38;;;23.30;9.80;;;;;;6472503;22;20325;-89
2024/04/14 16:48:20;;;;;;;3.47;2.92;;;23.20;9.70;;;;;;6468575;22;20227;-91
2024/04/14 16:50:49;;;;;;;4.53;2.60;;;23.10;10.90;;;;;;6469679;22;20238;-88
2024/04/14 16:53:17;;;;;;;4.35;2.65;;;23.10;10.00;;;;;;6471691;22;20270;-87
2024/04/14 16:55:43;;;;;;;2.78;2.40;;;23.00;10.50;;;;;;6470647;22;20343;-88
2024/04/14 16:58:14;;;;;;;3.78;2.67;;;22.90;11.10;;;;;;6471936;22;20609;-87
2024/04/14 17:00:40;;;;;;;4.57;2.10;;;22.80;11.70;;;;;;6478325;22;20279;-91
2024/04/14 17:03:10;;;;;;;2.53;2.33;;;22.70;13.30;;;;;;6473212;22;20231;-88
2024/04/14 17:05:36;;;;;;;2.45;2.25;;;22.70;12.70;;;;;;6428405;22;20261;-85
2024/04/14 17:08:08;;;;;;;4.40;2.55;;;22.60;12.60;;;;;;6472942;22;20535;-86
2024/04/14 17:10:40;;;;;;;3.17;2.70;;;22.60;12.60;;;;;;6480617;22;20223;-91
2024/04/14 17:13:09;;;;;;;2.42;2.22;;;22.40;12.50;;;;;;6424115;22;20266;-85
2024/04/14 17:15:36;;;;;;;2.83;2.47;;;22.40;12.50;;;;;;6474345;22;21015;-84
2024/04/14 17:18:05;;;;;;;3.08;2.50;;;22.30;12.40;;;;;;6474914;22;20228;-86
2024/04/14 17:20:31;;;;;;;3.20;2.60;;;22.20;12.40;;;;;;6475493;22;20263;-88